createdAt,value
2018-06-29T00:00:26.173Z,27.83
2018-06-29T00:01:26.158Z,27.86
2018-06-29T00:02:26.155Z,27.87
2018-06-29T00:03:26.149Z,27.84
2018-06-29T00:04:26.244Z,27.78
2018-06-29T00:05:26.116Z,27.84
2018-06-29T00:06:26.204Z,27.80
2018-06-29T00:07:26.097Z,27.77
2018-06-29T00:08:26.090Z,27.77
2018-06-29T00:09:26.207Z,27.80
2018-06-29T00:10:26.193Z,27.84
2018-06-29T00:11:26.436Z,27.81
2018-06-29T00:12:26.144Z,27.78
2018-06-29T00:13:26.146Z,27.78
2018-06-29T00:14:26.048Z,27.78
2018-06-29T00:15:26.121Z,27.81
2018-06-29T00:16:26.162Z,27.81
2018-06-29T00:17:25.992Z,27.81
2018-06-29T00:18:26.089Z,27.83
2018-06-29T00:19:26.111Z,27.81
2018-06-29T00:20:26.075Z,27.80
2018-06-29T00:21:25.963Z,27.80
2018-06-29T00:22:25.942Z,27.74
2018-06-29T00:23:26.053Z,27.72
2018-06-29T00:24:26.040Z,27.77
2018-06-29T00:25:26.019Z,27.78
2018-06-29T00:26:26.032Z,27.77
2018-06-29T00:27:26.034Z,27.83
2018-06-29T00:28:25.904Z,27.72
2018-06-29T00:29:25.886Z,27.81
2018-06-29T00:30:26.011Z,27.77
2018-06-29T00:31:25.848Z,27.76
2018-06-29T00:32:25.836Z,27.84
2018-06-29T00:33:25.933Z,27.80
2018-06-29T00:34:25.827Z,27.69
2018-06-29T00:35:25.809Z,27.66
2018-06-29T00:36:25.824Z,27.80
2018-06-29T00:37:25.798Z,27.65
2018-06-29T00:38:25.778Z,27.71
2018-06-29T00:39:27.809Z,27.76
2018-06-29T00:40:25.751Z,27.76
2018-06-29T00:41:25.902Z,27.74
2018-06-29T00:42:25.833Z,27.81
2018-06-29T00:43:25.796Z,27.80
2018-06-29T00:44:25.736Z,27.72
2018-06-29T00:45:25.700Z,27.72
2018-06-29T00:46:25.689Z,27.69
2018-06-29T00:47:25.691Z,27.71
2018-06-29T00:48:25.764Z,27.66
2018-06-29T00:49:25.670Z,27.74
2018-06-29T00:50:25.649Z,27.65
2018-06-29T00:51:25.691Z,27.68
2018-06-29T00:52:25.625Z,27.66
2018-06-29T00:53:25.629Z,27.74
2018-06-29T00:54:25.636Z,27.62
2018-06-29T00:55:25.680Z,27.69
2018-06-29T00:56:25.584Z,27.68
2018-06-29T00:57:25.592Z,27.71
2018-06-29T00:58:25.560Z,27.72
2018-06-29T00:59:25.687Z,27.68
2018-06-29T01:00:25.543Z,27.68
2018-06-29T01:01:25.531Z,27.66
2018-06-29T01:02:25.629Z,27.68
2018-06-29T01:03:25.519Z,27.69
2018-06-29T01:04:25.629Z,27.69
2018-06-29T01:05:26.384Z,27.65
2018-06-29T01:06:25.483Z,27.68
2018-06-29T01:07:25.593Z,27.66
2018-06-29T01:08:25.463Z,27.69
2018-06-29T01:09:25.464Z,27.66
2018-06-29T01:10:25.557Z,27.68
2018-06-29T01:11:25.442Z,27.58
2018-06-29T01:12:25.548Z,27.66
2018-06-29T01:13:25.409Z,27.74
2018-06-29T01:14:25.543Z,27.68
2018-06-29T01:15:25.387Z,27.65
2018-06-29T01:16:25.500Z,27.59
2018-06-29T01:17:25.375Z,27.62
2018-06-29T01:18:25.360Z,27.58
2018-06-29T01:19:25.354Z,27.63
2018-06-29T01:20:25.464Z,27.63
2018-06-29T01:21:25.361Z,27.58
2018-06-29T01:22:25.404Z,27.58
2018-06-29T01:23:25.417Z,27.63
2018-06-29T01:24:25.424Z,27.58
2018-06-29T01:25:25.511Z,27.58
2018-06-29T01:26:25.290Z,27.58
2018-06-29T01:27:25.268Z,27.49
2018-06-29T01:28:25.261Z,27.52
2018-06-29T01:29:25.357Z,27.50
2018-06-29T01:30:25.252Z,27.59
2018-06-29T01:31:25.331Z,27.59
2018-06-29T01:32:25.212Z,27.55
2018-06-29T01:33:25.207Z,27.55
2018-06-29T01:34:25.325Z,27.50
2018-06-29T01:35:25.306Z,27.50
2018-06-29T01:36:25.180Z,27.59
2018-06-29T01:37:25.170Z,27.59
2018-06-29T01:38:25.174Z,27.49
2018-06-29T01:39:25.179Z,27.49
2018-06-29T01:40:25.263Z,27.50
2018-06-29T01:41:25.158Z,27.53
2018-06-29T01:42:25.111Z,27.45
2018-06-29T01:43:25.103Z,27.42
2018-06-29T01:44:25.092Z,27.38
2018-06-29T01:45:25.109Z,27.48
2018-06-29T01:46:25.200Z,27.46
2018-06-29T01:47:25.062Z,27.42
2018-06-29T01:48:25.062Z,27.48
2018-06-29T01:49:25.046Z,27.45
2018-06-29T01:50:25.145Z,27.42
2018-06-29T01:51:25.018Z,27.40
2018-06-29T01:52:25.113Z,27.49
2018-06-29T01:53:25.006Z,27.45
2018-06-29T01:54:25.010Z,27.45
2018-06-29T01:55:24.989Z,27.43
2018-06-29T01:56:25.001Z,27.42
2018-06-29T01:57:25.010Z,27.52
2018-06-29T01:58:24.954Z,27.35
2018-06-29T01:59:24.938Z,27.43
2018-06-29T02:00:24.942Z,27.40
2018-06-29T02:01:25.044Z,27.39
2018-06-29T02:02:24.919Z,27.46
2018-06-29T02:03:24.896Z,27.43
2018-06-29T02:04:24.886Z,27.40
2018-06-29T02:05:24.978Z,27.40
2018-06-29T02:06:24.877Z,27.40
2018-06-29T02:07:24.852Z,27.39
2018-06-29T02:08:24.936Z,27.34
2018-06-29T02:09:24.959Z,27.34
2018-06-29T02:10:24.836Z,27.45
2018-06-29T02:11:24.820Z,27.42
2018-06-29T02:12:24.842Z,27.42
2018-06-29T02:13:24.797Z,27.38
2018-06-29T02:14:25.018Z,27.39
2018-06-29T02:15:24.795Z,27.42
2018-06-29T02:16:24.872Z,27.34
2018-06-29T02:17:24.768Z,27.34
2018-06-29T02:18:24.739Z,27.48
2018-06-29T02:19:24.737Z,27.40
2018-06-29T02:20:24.734Z,27.33
2018-06-29T02:21:24.823Z,27.31
2018-06-29T02:22:24.820Z,27.40
2018-06-29T02:23:24.689Z,27.38
2018-06-29T02:24:24.815Z,27.38
2018-06-29T02:25:24.790Z,27.31
2018-06-29T02:26:24.659Z,27.34
2018-06-29T02:27:24.753Z,27.30
2018-06-29T02:28:24.775Z,27.28
2018-06-29T02:29:24.735Z,27.31
2018-06-29T02:30:24.741Z,27.31
2018-06-29T02:31:24.614Z,27.34
2018-06-29T02:32:24.726Z,27.25
2018-06-29T02:33:24.589Z,27.24
2018-06-29T02:34:24.585Z,27.24
2018-06-29T02:35:24.581Z,27.27
2018-06-29T02:36:24.563Z,27.25
2018-06-29T02:37:24.553Z,27.31
2018-06-29T02:38:24.727Z,27.30
2018-06-29T02:39:24.589Z,27.30
2018-06-29T02:40:24.528Z,27.35
2018-06-29T02:41:24.505Z,27.30
2018-06-29T02:42:24.589Z,27.28
2018-06-29T02:43:24.622Z,27.30
2018-06-29T02:44:24.590Z,27.27
2018-06-29T02:45:24.488Z,27.28
2018-06-29T02:46:24.463Z,27.25
2018-06-29T02:47:24.464Z,27.27
2018-06-29T02:48:24.437Z,27.25
2018-06-29T02:49:24.436Z,27.24
2018-06-29T02:50:24.542Z,27.33
2018-06-29T02:51:24.503Z,27.24
2018-06-29T02:52:24.391Z,27.28
2018-06-29T02:53:24.386Z,27.28
2018-06-29T02:54:24.378Z,27.23
2018-06-29T02:55:24.383Z,27.24
2018-06-29T02:56:24.467Z,27.24
2018-06-29T02:57:24.348Z,27.23
2018-06-29T02:58:24.429Z,27.31
2018-06-29T02:59:24.324Z,27.25
2018-06-29T03:00:24.448Z,27.25
2018-06-29T03:01:24.299Z,27.30
2018-06-29T03:02:24.285Z,27.30
2018-06-29T03:03:24.369Z,27.28
2018-06-29T03:04:24.370Z,27.25
2018-06-29T03:05:24.331Z,27.27
2018-06-29T03:06:24.244Z,27.30
2018-06-29T03:07:24.237Z,27.25
2018-06-29T03:08:24.227Z,27.23
2018-06-29T03:09:24.320Z,27.18
2018-06-29T03:10:24.234Z,27.18
2018-06-29T03:11:24.307Z,27.24
2018-06-29T03:12:24.197Z,27.23
2018-06-29T03:13:24.167Z,27.24
2018-06-29T03:14:24.281Z,27.21
2018-06-29T03:15:24.247Z,27.23
2018-06-29T03:16:24.249Z,27.21
2018-06-29T03:17:24.125Z,27.21
2018-06-29T03:18:24.119Z,27.21
2018-06-29T03:19:24.124Z,27.23
2018-06-29T03:20:24.199Z,27.18
2018-06-29T03:21:24.088Z,27.20
2018-06-29T03:22:24.079Z,27.16
2018-06-29T03:23:24.180Z,27.15
2018-06-29T03:24:24.164Z,27.20
2018-06-29T03:25:24.142Z,27.23
2018-06-29T03:26:24.143Z,27.15
2018-06-29T03:27:24.041Z,27.20
2018-06-29T03:28:24.025Z,27.09
2018-06-29T03:29:24.010Z,27.16
2018-06-29T03:30:24.004Z,27.11
2018-06-29T03:31:23.995Z,27.13
2018-06-29T03:32:23.979Z,27.16
2018-06-29T03:33:23.959Z,27.12
2018-06-29T03:34:23.952Z,27.11
2018-06-29T03:35:24.057Z,27.12
2018-06-29T03:36:23.941Z,27.11
2018-06-29T03:37:24.040Z,27.16
2018-06-29T03:38:23.926Z,27.08
2018-06-29T03:39:23.916Z,27.11
2018-06-29T03:40:24.091Z,27.16
2018-06-29T03:41:23.989Z,27.15
2018-06-29T03:42:23.995Z,27.18
2018-06-29T03:43:23.861Z,27.12
2018-06-29T03:44:23.977Z,27.13
2018-06-29T03:45:23.838Z,27.11
2018-06-29T03:46:23.970Z,27.13
2018-06-29T03:47:23.816Z,27.15
2018-06-29T03:48:23.916Z,27.08
2018-06-29T03:49:23.981Z,27.13
2018-06-29T03:50:23.912Z,27.13
2018-06-29T03:51:23.785Z,27.08
2018-06-29T03:52:23.862Z,27.20
2018-06-29T03:53:23.882Z,27.06
2018-06-29T03:54:23.858Z,27.12
2018-06-29T03:55:23.732Z,27.13
2018-06-29T03:56:23.738Z,27.15
2018-06-29T03:57:23.823Z,27.16
2018-06-29T03:58:23.705Z,27.13
2018-06-29T03:59:23.690Z,27.13
2018-06-29T04:00:23.684Z,27.13
2018-06-29T04:01:23.688Z,27.13
2018-06-29T04:02:23.760Z,27.16
2018-06-29T04:03:23.762Z,27.15
2018-06-29T04:04:23.665Z,27.16
2018-06-29T04:05:23.738Z,27.13
2018-06-29T04:06:23.632Z,27.13
2018-06-29T04:07:23.622Z,27.15
2018-06-29T04:08:23.976Z,27.16
2018-06-29T04:09:23.592Z,27.20
2018-06-29T04:10:23.579Z,27.13
2018-06-29T04:11:23.587Z,27.15
2018-06-29T04:12:23.693Z,27.18
2018-06-29T04:13:23.555Z,27.16
2018-06-29T04:14:23.533Z,27.12
2018-06-29T04:15:23.525Z,27.13
2018-06-29T04:16:23.684Z,27.12
2018-06-29T04:17:23.519Z,27.13
2018-06-29T04:18:23.520Z,27.11
2018-06-29T04:19:23.488Z,27.12
2018-06-29T04:20:23.596Z,27.12
2018-06-29T04:21:23.582Z,27.13
2018-06-29T04:22:23.469Z,27.16
2018-06-29T04:23:23.442Z,27.16
2018-06-29T04:24:23.449Z,27.12
2018-06-29T04:25:23.421Z,27.15
2018-06-29T04:26:23.473Z,27.12
2018-06-29T04:27:23.521Z,27.18
2018-06-29T04:28:23.386Z,27.13
2018-06-29T04:29:23.384Z,27.13
2018-06-29T04:30:23.369Z,27.05
2018-06-29T04:31:23.370Z,27.11
2018-06-29T04:32:23.460Z,27.12
2018-06-29T04:33:23.450Z,27.20
2018-06-29T04:34:23.406Z,27.08
2018-06-29T04:35:23.437Z,27.13
2018-06-29T04:36:23.320Z,27.11
2018-06-29T04:37:23.298Z,27.12
2018-06-29T04:38:23.420Z,27.18
2018-06-29T04:39:23.387Z,27.15
2018-06-29T04:40:23.268Z,27.15
2018-06-29T04:41:23.273Z,27.08
2018-06-29T04:42:23.247Z,27.08
2018-06-29T04:43:23.337Z,27.13
2018-06-29T04:44:23.299Z,27.12
2018-06-29T04:45:23.236Z,27.11
2018-06-29T04:46:23.199Z,27.13
2018-06-29T04:47:23.326Z,27.03
2018-06-29T04:48:23.194Z,27.11
2018-06-29T04:49:23.222Z,27.12
2018-06-29T04:50:23.167Z,27.15
2018-06-29T04:51:23.165Z,27.12
2018-06-29T04:52:23.591Z,27.06
2018-06-29T04:53:23.232Z,27.09
2018-06-29T04:54:23.241Z,27.13
2018-06-29T04:55:23.112Z,27.12
2018-06-29T04:56:23.108Z,27.12
2018-06-29T04:57:23.152Z,27.18
2018-06-29T04:58:23.154Z,27.06
2018-06-29T04:59:23.213Z,27.11
2018-06-29T05:00:23.575Z,27.12
2018-06-29T05:01:23.163Z,27.13
2018-06-29T05:02:23.175Z,27.13
2018-06-29T05:03:23.153Z,27.13
2018-06-29T05:04:23.116Z,27.08
2018-06-29T05:05:23.009Z,27.11
2018-06-29T05:06:23.008Z,27.13
2018-06-29T05:07:23.016Z,27.15
2018-06-29T05:08:22.988Z,27.02
2018-06-29T05:09:22.967Z,27.13
2018-06-29T05:10:22.949Z,27.13
2018-06-29T05:11:22.940Z,27.13
2018-06-29T05:12:22.947Z,27.12
2018-06-29T05:13:22.925Z,27.11
2018-06-29T05:14:23.031Z,27.13
2018-06-29T05:15:22.937Z,27.12
2018-06-29T05:16:22.900Z,27.13
2018-06-29T05:17:22.904Z,27.13
2018-06-29T05:18:22.868Z,27.12
2018-06-29T05:19:22.964Z,27.16
2018-06-29T05:20:22.850Z,27.12
2018-06-29T05:21:22.957Z,27.16
2018-06-29T05:22:22.853Z,27.12
2018-06-29T05:23:22.821Z,27.16
2018-06-29T05:24:22.922Z,27.15
2018-06-29T05:25:22.802Z,27.11
2018-06-29T05:26:22.792Z,27.16
2018-06-29T05:27:22.786Z,27.13
2018-06-29T05:28:22.910Z,27.11
2018-06-29T05:29:22.865Z,27.05
2018-06-29T05:30:22.870Z,27.03
2018-06-29T05:31:24.964Z,27.01
2018-06-29T05:32:22.747Z,26.91
2018-06-29T05:33:22.714Z,26.83
2018-06-29T05:34:22.870Z,26.76
2018-06-29T05:35:22.690Z,26.68
2018-06-29T05:36:22.683Z,26.68
2018-06-29T05:37:22.699Z,26.51
2018-06-29T05:38:22.781Z,26.47
2018-06-29T05:39:22.674Z,26.57
2018-06-29T05:40:22.660Z,26.46
2018-06-29T05:43:31.088Z,26.12
2018-06-29T05:44:32.180Z,26.01
2018-06-29T05:45:32.137Z,25.83
2018-06-29T05:46:31.978Z,25.72
2018-06-29T05:47:32.223Z,25.79
2018-06-29T05:48:32.025Z,25.67
2018-06-29T05:49:32.095Z,25.59
2018-06-29T05:50:31.032Z,25.56
2018-06-29T05:51:31.940Z,25.44
2018-06-29T05:52:32.141Z,25.46
2018-06-29T05:53:32.057Z,25.31
2018-06-29T05:54:32.040Z,25.27
2018-06-29T05:55:32.060Z,25.26
2018-06-29T05:56:31.911Z,25.22
2018-06-29T05:57:32.045Z,25.19
2018-06-29T05:58:31.874Z,25.27
2018-06-29T05:59:32.007Z,25.20
2018-06-29T06:00:31.974Z,25.17
2018-06-29T06:01:31.837Z,25.04
2018-06-29T06:02:31.816Z,25.05
2018-06-29T06:03:31.832Z,25.01
2018-06-29T06:04:31.867Z,24.94
2018-06-29T06:05:31.811Z,24.94
2018-06-29T06:06:31.914Z,24.92
2018-06-29T06:07:31.880Z,24.92
2018-06-29T06:08:31.876Z,24.86
2018-06-29T06:09:31.775Z,24.83
2018-06-29T06:10:31.855Z,24.86
2018-06-29T06:11:31.866Z,24.79
2018-06-29T06:12:31.723Z,24.77
2018-06-29T06:13:31.861Z,24.83
2018-06-29T06:14:31.712Z,24.87
2018-06-29T06:15:32.653Z,24.80
2018-06-29T06:16:31.679Z,24.75
2018-06-29T06:17:31.785Z,24.68
2018-06-29T06:18:31.666Z,24.75
2018-06-29T06:19:31.781Z,24.70
2018-06-29T06:20:31.641Z,24.68
2018-06-29T06:21:31.737Z,24.70
2018-06-29T06:22:31.607Z,24.70
2018-06-29T06:23:31.737Z,24.67
2018-06-29T06:24:31.597Z,24.70
2018-06-29T06:25:31.587Z,24.68
2018-06-29T06:26:31.676Z,24.68
2018-06-29T06:27:31.560Z,24.59
2018-06-29T06:28:31.683Z,24.70
2018-06-29T06:29:32.746Z,24.63
2018-06-29T06:30:31.555Z,24.67
2018-06-29T06:31:31.638Z,24.61
2018-06-29T06:32:31.506Z,24.60
2018-06-29T06:33:30.631Z,24.61
2018-06-29T06:34:31.623Z,24.64
2018-06-29T06:35:31.609Z,24.55
2018-06-29T06:36:31.602Z,24.61
2018-06-29T06:37:31.601Z,24.60
2018-06-29T06:38:31.603Z,24.59
2018-06-29T06:39:31.577Z,24.60
2018-06-29T06:40:31.431Z,24.56
2018-06-29T06:41:31.688Z,24.51
2018-06-29T06:42:31.490Z,24.61
2018-06-29T06:43:31.561Z,24.56
2018-06-29T06:44:30.464Z,24.55
2018-06-29T06:45:31.494Z,24.60
2018-06-29T06:46:31.389Z,24.61
2018-06-29T06:47:31.459Z,24.67
2018-06-29T06:48:31.405Z,24.59
2018-06-29T06:49:31.366Z,24.59
2018-06-29T06:50:31.462Z,24.59
2018-06-29T06:51:30.422Z,24.59
2018-06-29T06:53:42.438Z,24.64
2018-06-29T06:54:43.918Z,24.59
2018-06-29T06:55:42.207Z,24.61
2018-06-29T06:56:42.142Z,24.59
2018-06-29T06:57:42.071Z,24.53
2018-06-29T06:58:42.189Z,24.60
2018-06-29T06:59:42.244Z,24.60
2018-06-29T07:00:42.494Z,24.59
2018-06-29T07:01:42.053Z,24.55
2018-06-29T07:02:42.178Z,24.53
2018-06-29T07:03:41.982Z,24.60
2018-06-29T07:04:41.989Z,24.60
2018-06-29T07:05:43.092Z,24.56
2018-06-29T07:06:42.118Z,24.53
2018-06-29T07:07:42.036Z,24.59
2018-06-29T07:08:42.066Z,24.59
2018-06-29T07:09:41.953Z,24.61
2018-06-29T07:10:42.024Z,24.67
2018-06-29T07:11:42.099Z,24.59
2018-06-29T07:12:41.893Z,24.63
2018-06-29T07:13:41.953Z,24.60
2018-06-29T07:14:41.870Z,24.66
2018-06-29T07:15:42.045Z,24.59
2018-06-29T07:16:41.905Z,24.61
2018-06-29T07:17:41.901Z,24.61
2018-06-29T07:18:41.847Z,24.60
2018-06-29T07:19:40.861Z,24.64
2018-06-29T07:20:41.964Z,24.60
2018-06-29T07:21:41.926Z,24.61
2018-06-29T07:22:41.884Z,24.61
2018-06-29T07:23:41.772Z,24.75
2018-06-29T07:24:41.942Z,24.60
2018-06-29T07:25:41.917Z,24.59
2018-06-29T07:26:41.762Z,24.61
2018-06-29T07:27:41.873Z,24.59
2018-06-29T07:28:41.726Z,24.60
2018-06-29T07:29:41.811Z,24.61
2018-06-29T07:30:41.835Z,24.67
2018-06-29T07:31:41.739Z,24.68
2018-06-29T07:32:44.267Z,24.60
2018-06-29T07:33:40.703Z,24.63
2018-06-29T07:34:41.886Z,24.59
2018-06-29T07:35:41.764Z,24.61
2018-06-29T07:36:41.695Z,24.61
2018-06-29T07:37:41.624Z,24.61
2018-06-29T07:38:41.673Z,24.64
2018-06-29T07:39:41.605Z,24.60
2018-06-29T07:40:41.604Z,24.56
2018-06-29T07:41:41.811Z,24.66
2018-06-29T07:42:40.687Z,24.63
2018-06-29T07:46:31.459Z,24.60
2018-06-29T07:47:29.656Z,24.70
2018-06-29T07:48:29.035Z,24.61
2018-06-29T07:49:29.887Z,24.61
2018-06-29T07:50:28.973Z,24.63
2018-06-29T07:51:29.177Z,24.70
2018-06-29T07:52:28.961Z,24.66
2018-06-29T07:53:29.007Z,24.68
2018-06-29T07:54:29.019Z,24.74
2018-06-29T07:55:28.081Z,24.67
2018-06-29T07:56:29.101Z,24.70
2018-06-29T07:57:28.068Z,24.77
2018-06-29T07:58:29.153Z,24.71
2018-06-29T07:59:28.021Z,24.74
2018-06-29T08:00:29.038Z,24.74
2018-06-29T08:02:38.828Z,24.75
2018-06-29T08:03:39.690Z,24.77
2018-06-29T08:04:39.685Z,24.75
2018-06-29T08:05:39.744Z,24.67
2018-06-29T08:06:38.719Z,24.68
2018-06-29T08:07:39.746Z,24.71
2018-06-29T08:08:39.622Z,24.80
2018-06-29T08:09:39.715Z,24.71
2018-06-29T08:10:39.640Z,24.77
2018-06-29T08:11:39.593Z,24.67
2018-06-29T08:12:40.608Z,24.70
2018-06-29T08:13:38.594Z,24.74
2018-06-29T08:14:38.535Z,24.68
2018-06-29T08:15:39.529Z,24.61
2018-06-29T08:16:39.665Z,24.64
2018-06-29T08:17:39.543Z,24.66
2018-06-29T08:18:38.548Z,24.67
2018-06-29T08:19:39.637Z,24.68
2018-06-29T08:20:39.634Z,24.67
2018-06-29T08:21:39.651Z,24.67
2018-06-29T08:22:39.460Z,24.64
2018-06-29T08:23:39.493Z,24.61
2018-06-29T08:24:39.550Z,24.70
2018-06-29T08:25:39.562Z,24.70
2018-06-29T08:26:39.425Z,24.64
2018-06-29T08:27:40.402Z,24.70
2018-06-29T08:28:39.415Z,24.68
2018-06-29T08:29:39.570Z,24.67
2018-06-29T08:30:39.368Z,24.71
2018-06-29T08:31:39.825Z,24.74
2018-06-29T08:32:39.502Z,24.75
2018-06-29T08:33:39.475Z,24.71
2018-06-29T08:34:39.330Z,24.79
2018-06-29T08:35:38.334Z,24.82
2018-06-29T08:36:38.308Z,24.70
2018-06-29T08:37:39.306Z,24.79
2018-06-29T08:38:39.356Z,24.87
2018-06-29T08:39:39.289Z,24.87
2018-06-29T08:40:39.331Z,24.84
2018-06-29T08:41:39.260Z,24.84
2018-06-29T08:42:39.393Z,24.82
2018-06-29T08:43:39.356Z,24.82
2018-06-29T08:44:39.261Z,24.87
2018-06-29T08:45:38.241Z,24.82
2018-06-29T08:46:39.286Z,24.79
2018-06-29T08:47:39.265Z,24.82
2018-06-29T08:48:39.204Z,24.84
2018-06-29T08:49:39.317Z,24.82
2018-06-29T08:52:30.602Z,24.84
2018-06-29T08:53:31.277Z,24.86
2018-06-29T08:54:31.104Z,24.84
2018-06-29T08:55:31.108Z,24.84
2018-06-29T08:56:30.819Z,24.84
2018-06-29T08:57:30.058Z,24.83
2018-06-29T08:58:31.045Z,24.84
2018-06-29T09:00:53.258Z,24.94
2018-06-29T09:01:45.184Z,24.93
2018-06-29T09:02:45.035Z,24.89
2018-06-29T09:03:45.218Z,24.89
2018-06-29T09:05:55.017Z,24.87
2018-06-29T09:06:55.825Z,24.90
2018-06-29T09:07:55.930Z,24.92
2018-06-29T09:08:57.010Z,24.84
2018-06-29T09:09:55.910Z,24.87
2018-06-29T09:10:55.727Z,24.89
2018-06-29T09:11:55.764Z,24.97
2018-06-29T09:12:55.715Z,24.89
2018-06-29T09:13:55.710Z,24.92
2018-06-29T09:14:55.676Z,24.87
2018-06-29T09:15:55.720Z,24.93
2018-06-29T09:16:55.800Z,24.89
2018-06-29T09:17:55.683Z,24.90
2018-06-29T09:18:55.874Z,24.90
2018-06-29T09:19:54.732Z,24.94
2018-06-29T09:20:54.649Z,24.93
2018-06-29T09:21:55.924Z,24.90
2018-06-29T09:22:55.614Z,24.94
2018-06-29T09:23:55.712Z,24.94
2018-06-29T09:24:55.574Z,24.92
2018-06-29T09:25:55.573Z,25.01
2018-06-29T09:26:55.585Z,24.98
2018-06-29T09:27:55.664Z,25.01
2018-06-29T09:28:55.810Z,24.94
2018-06-29T09:29:55.601Z,24.99
2018-06-29T09:30:55.549Z,24.97
2018-06-29T09:31:54.976Z,24.94
2018-06-29T09:32:55.617Z,24.97
2018-06-29T09:33:54.489Z,25.04
2018-06-29T09:34:55.482Z,24.98
2018-06-29T09:35:54.564Z,25.05
2018-06-29T09:36:55.573Z,25.08
2018-06-29T09:37:55.449Z,24.99
2018-06-29T09:42:26.703Z,25.01
2018-06-29T09:43:08.161Z,25.05
2018-06-29T09:45:29.450Z,25.07
2018-06-29T09:49:26.207Z,25.09
2018-06-29T09:53:25.875Z,25.09
2018-06-29T09:54:26.129Z,25.04
2018-06-29T09:57:13.557Z,25.04
2018-06-29T09:58:14.380Z,25.02
2018-06-29T10:00:41.049Z,25.09
2018-06-29T10:01:38.453Z,25.09
2018-06-29T10:02:39.273Z,25.07
2018-06-29T10:03:38.535Z,25.07
2018-06-29T10:04:38.353Z,25.05
2018-06-29T10:05:38.344Z,25.09
2018-06-29T10:06:38.310Z,25.07
2018-06-29T10:07:38.308Z,25.14
2018-06-29T10:08:38.438Z,25.16
2018-06-29T10:09:38.291Z,25.09
2018-06-29T10:10:38.300Z,25.17
2018-06-29T10:11:39.245Z,25.08
2018-06-29T10:12:38.380Z,25.14
2018-06-29T10:13:38.256Z,25.22
2018-06-29T10:14:38.348Z,25.20
2018-06-29T10:15:38.271Z,25.20
2018-06-29T10:16:38.247Z,25.20
2018-06-29T10:17:38.204Z,25.22
2018-06-29T10:18:38.271Z,25.23
2018-06-29T10:19:38.395Z,25.17
2018-06-29T10:20:38.296Z,25.17
2018-06-29T10:21:38.142Z,25.16
2018-06-29T10:22:38.147Z,25.16
2018-06-29T10:23:38.128Z,25.16
2018-06-29T10:24:38.223Z,25.17
2018-06-29T10:25:38.116Z,25.19
2018-06-29T10:26:38.766Z,25.16
2018-06-29T10:27:38.103Z,25.22
2018-06-29T10:28:38.137Z,25.17
2018-06-29T10:29:38.186Z,25.19
2018-06-29T10:30:38.077Z,25.23
2018-06-29T10:31:38.067Z,25.27
2018-06-29T10:32:38.142Z,25.14
2018-06-29T10:33:38.028Z,25.19
2018-06-29T10:34:38.071Z,25.11
2018-06-29T10:35:38.018Z,25.12
2018-06-29T10:36:38.254Z,25.19
2018-06-29T10:37:38.073Z,25.17
2018-06-29T10:38:38.112Z,25.22
2018-06-29T10:39:37.949Z,25.12
2018-06-29T10:40:37.956Z,25.24
2018-06-29T10:41:38.064Z,25.23
2018-06-29T10:42:37.920Z,25.22
2018-06-29T10:43:37.989Z,25.26
2018-06-29T10:44:38.047Z,25.24
2018-06-29T10:45:37.916Z,25.22
2018-06-29T10:46:44.437Z,25.26
2018-06-29T10:47:37.903Z,25.26
2018-06-29T10:48:37.861Z,25.26
2018-06-29T10:49:37.851Z,25.29
2018-06-29T10:50:37.871Z,25.26
2018-06-29T10:51:37.845Z,25.27
2018-06-29T10:52:37.853Z,25.24
2018-06-29T10:53:37.826Z,25.26
2018-06-29T10:54:37.980Z,25.31
2018-06-29T10:55:37.783Z,25.38
2018-06-29T10:56:37.794Z,25.26
2018-06-29T10:57:36.949Z,25.29
2018-06-29T10:58:37.936Z,25.30
2018-06-29T10:59:37.925Z,25.34
2018-06-29T11:00:36.765Z,25.35
2018-06-29T11:01:37.865Z,25.36
2018-06-29T11:02:37.903Z,25.38
2018-06-29T11:03:36.734Z,25.31
2018-06-29T11:04:37.710Z,25.36
2018-06-29T11:05:37.803Z,25.38
2018-06-29T11:06:38.643Z,25.36
2018-06-29T11:07:37.831Z,25.41
2018-06-29T11:08:37.662Z,25.38
2018-06-29T11:09:37.652Z,25.36
2018-06-29T11:10:36.751Z,25.38
2018-06-29T11:11:37.740Z,25.38
2018-06-29T11:12:36.627Z,25.42
2018-06-29T11:13:37.725Z,25.38
2018-06-29T11:14:38.242Z,25.38
2018-06-29T11:15:37.701Z,25.36
2018-06-29T11:16:37.665Z,25.44
2018-06-29T11:17:37.687Z,25.41
2018-06-29T11:18:37.709Z,25.44
2018-06-29T11:19:37.713Z,25.44
2018-06-29T11:20:36.524Z,25.44
2018-06-29T11:21:37.649Z,25.53
2018-06-29T11:22:37.667Z,25.54
2018-06-29T11:23:37.668Z,25.45
2018-06-29T11:24:37.518Z,25.53
2018-06-29T11:25:37.595Z,25.56
2018-06-29T11:26:37.727Z,25.60
2018-06-29T11:27:37.469Z,25.54
2018-06-29T11:28:36.483Z,25.63
2018-06-29T11:29:38.262Z,25.59
2018-06-29T11:30:37.625Z,25.60
2018-06-29T11:31:37.433Z,25.63
2018-06-29T11:32:37.544Z,25.61
2018-06-29T11:34:48.516Z,25.59
2018-06-29T11:35:49.308Z,25.60
2018-06-29T11:36:48.201Z,25.63
2018-06-29T11:37:49.241Z,25.63
2018-06-29T11:38:49.153Z,25.69
2018-06-29T11:39:48.262Z,25.72
2018-06-29T11:40:49.126Z,25.69
2018-06-29T11:41:49.496Z,25.75
2018-06-29T11:42:49.267Z,25.72
2018-06-29T11:43:49.193Z,25.74
2018-06-29T11:44:49.181Z,25.74
2018-06-29T11:45:49.072Z,25.64
2018-06-29T11:46:49.191Z,25.69
2018-06-29T11:47:49.170Z,25.72
2018-06-29T11:48:49.052Z,25.74
2018-06-29T11:49:49.051Z,25.75
2018-06-29T11:50:49.137Z,25.66
2018-06-29T11:51:49.106Z,25.72
2018-06-29T11:52:49.093Z,25.74
2018-06-29T11:53:49.075Z,25.76
2018-06-29T11:54:49.148Z,25.72
2018-06-29T11:55:49.194Z,25.71
2018-06-29T11:56:48.068Z,25.74
2018-06-29T11:57:49.124Z,25.69
2018-06-29T11:58:48.050Z,25.72
2018-06-29T11:59:49.027Z,25.74
2018-06-29T12:00:49.014Z,25.71
2018-06-29T12:01:49.010Z,25.71
2018-06-29T12:02:48.919Z,25.67
2018-06-29T12:03:48.998Z,25.72
2018-06-29T12:04:49.005Z,25.69
2018-06-29T12:05:48.838Z,25.78
2018-06-29T12:06:48.940Z,25.67
2018-06-29T12:07:48.992Z,25.74
2018-06-29T12:08:48.813Z,25.72
2018-06-29T12:09:48.822Z,25.69
2018-06-29T12:10:48.813Z,25.71
2018-06-29T12:11:48.780Z,25.67
2018-06-29T12:12:48.891Z,25.74
2018-06-29T12:13:48.911Z,25.67
2018-06-29T12:14:48.881Z,25.71
2018-06-29T12:15:48.745Z,25.74
2018-06-29T12:16:48.835Z,25.69
2018-06-29T12:17:48.884Z,25.67
2018-06-29T12:18:48.801Z,25.66
2018-06-29T12:19:48.693Z,25.61
2018-06-29T12:20:48.867Z,25.74
2018-06-29T12:21:48.694Z,25.71
2018-06-29T12:22:49.922Z,25.61
2018-06-29T12:23:47.793Z,25.71
2018-06-29T12:24:48.758Z,25.74
2018-06-29T12:25:48.633Z,25.61
2018-06-29T12:26:48.619Z,25.67
2018-06-29T12:27:47.611Z,25.63
2018-06-29T12:28:48.639Z,25.74
2018-06-29T12:29:48.710Z,25.63
2018-06-29T12:30:47.899Z,25.69
2018-06-29T12:31:48.782Z,25.74
2018-06-29T12:32:48.672Z,25.74
2018-06-29T12:33:48.666Z,25.79
2018-06-29T12:34:47.611Z,25.71
2018-06-29T12:35:48.662Z,25.72
2018-06-29T12:36:49.913Z,25.71
2018-06-29T12:37:48.517Z,25.67
2018-06-29T12:38:48.651Z,25.63
2018-06-29T12:39:48.615Z,25.71
2018-06-29T12:40:48.382Z,25.72
2018-06-29T12:41:48.591Z,25.63
2018-06-29T12:42:48.698Z,25.64
2018-06-29T12:43:48.564Z,25.69
2018-06-29T12:44:48.550Z,25.69
2018-06-29T12:45:48.534Z,25.71
2018-06-29T12:46:48.552Z,25.71
2018-06-29T12:47:48.538Z,25.69
2018-06-29T12:48:48.537Z,25.78
2018-06-29T12:49:48.508Z,25.72
2018-06-29T12:50:48.381Z,25.74
2018-06-29T12:51:48.515Z,25.72
2018-06-29T12:52:48.359Z,25.69
2018-06-29T12:53:48.465Z,25.75
2018-06-29T12:54:48.462Z,25.74
2018-06-29T12:55:48.362Z,25.69
2018-06-29T12:56:48.421Z,25.72
2018-06-29T12:57:48.353Z,25.72
2018-06-29T12:58:48.325Z,25.89
2018-06-29T12:59:48.436Z,25.79
2018-06-29T13:00:48.270Z,25.89
2018-06-29T13:01:48.297Z,25.86
2018-06-29T13:02:48.340Z,25.83
2018-06-29T13:03:48.247Z,25.91
2018-06-29T13:04:48.328Z,25.82
2018-06-29T13:05:48.341Z,25.86
2018-06-29T13:06:48.327Z,25.85
2018-06-29T13:07:48.290Z,25.89
2018-06-29T13:08:48.318Z,25.82
2018-06-29T13:09:48.308Z,25.79
2018-06-29T13:10:48.279Z,25.83
2018-06-29T13:11:48.420Z,25.93
2018-06-29T13:12:47.131Z,25.98
2018-06-29T13:13:48.243Z,25.97
2018-06-29T13:14:48.247Z,25.98
2018-06-29T13:15:47.213Z,25.98
2018-06-29T13:16:48.233Z,25.96
2018-06-29T13:17:48.086Z,26.00
2018-06-29T13:18:48.218Z,25.89